Fern Creek, Kentucky
Current Conditions -  °F | °C
As of 8:53 AM on Thursday 23 Oct 2014 (Local Time) from KLOU Reporting Station
Clear Clear  
Wind Chill: 40°   Ceiling: Unl
Heat Index: 40°   Visibility: 8mi
Dew Point: 36°   Wind: 3mph
Humidity: 86%   Direction: 330°NNW
Pressure: 30.27"   Gusts: NA
Location:  38.16°N, 85.59°W
Report Text: KLOU 231253Z 33003KT 8SM CLR 04/02 A3027 RMK AO2 SLP251 T00440022
Loading
Personal Weather Stations






























Interactive Weather Map
Tropical Storm Tracking
New forecast layout! Learn more

10-Day Weather Forecast

Advertisements
Track Severe Weather on mobile